ROMMA est une association bénévole à but non lucratif. Votre soutien est indispensable : ADHERER à ROMMA ou FAIRE un DON

Montélimar - (26, Drôme)

Basse vallée du Rhône (88 m)   Longitude: 04° 45' E   Latitude: 44° 32' N Station partenaire n°164
 

Détail journalier du     <<     >>

Température Precipitation Humidité Pression Vent Dir Rafale Dir. rafale
Heure (°C) (mm) (%) (hPa) (km/h) (km/h)
01:00 18.3051101730N68NNE
02:00 17.8053101729N63NNO
03:00 17.2055101724N56NE
04:00 16.4057101721N47NE
05:00 15.7060101717N44NE
06:00 15.1063101717NE45NNE
07:00 14.8065101725N50NNE
08:00 14.7066101823N50NE
09:00 15.0066101821N50N
10:00 16.2063101823NE52NE
11:00 17.4060101823NE58NNO
12:00 18.8055101822NE53NE
13:00 19.6052101827NE63NE
14:00 20.6049101825NE64NE
15:00 20.8049101729NE68ENE
16:00 20.9050101723NE53NE
17:00 20.2053101724NE53NE
18:00 19.6055101724NE56ENE
19:00 19.4056101719N42NO
20:00 19.2055101721N42NNE
21:00 18.8056101819N35NE
22:00 18.1060101817N35NNO
23:00 17.6063101915N29N
minuit 17.3062101812N26N

Graphique du 06-09-2019

 

Serveur OMMA